Time;durP1;ratioP1;P1;durP2;ratioP2;P2;SDS_P1;SDS_P2;PMS_P1;PMS_P2;Temp;Humidity;BMP_temperature;BMP_pressure;BME280_temperature;BME280_humidity;BME280_pressure;Samples;Min_cycle;Max_cycle;Signal;HPM_P1;HPM_P2
2021/04/19 00:00:45;;;;;;;;;;;;;;;12.45;58.80;101746.94;4969884;28;96743;-84
2021/04/19 00:03:11;;;;;;;;;;;;;;;12.85;57.49;101746.69;4970240;28;98854;-83
2021/04/19 00:05:38;;;;;;;;;;;;;;;12.50;58.41;101753.00;4985417;28;98862;-85
2021/04/19 00:08:04;;;;;;;;;;;;;;;12.83;57.26;101740.56;4966691;28;97179;-84
2021/04/19 00:10:31;;;;;;;;;;;;;;;12.70;57.70;101742.69;4958092;28;97080;-85
2021/04/19 00:12:56;;;;;;;;;;;;;;;12.64;57.42;101741.09;4960568;28;97855;-85
2021/04/19 00:15:22;;;;;;;;;;;;;;;12.78;57.16;101740.69;4953670;28;97728;-84
2021/04/19 00:17:48;;;;;;;;;;;;;;;12.68;57.47;101741.84;4953715;28;96926;-84
2021/04/19 00:20:14;;;;;;;;;;;;;;;12.40;58.73;101744.44;4958363;28;97053;-84
2021/04/19 00:22:41;;;;;;;;;;;;;;;12.52;58.97;101737.91;4952847;28;99015;-84
2021/04/19 00:25:08;;;;;;;;;;;;;;;12.06;59.68;101731.22;4962332;28;98826;-84
2021/04/19 00:27:34;;;;;;;;;;;;;;;12.55;58.24;101737.81;4961849;28;98487;-84
2021/04/19 00:30:00;;;;;;;;;;;;;;;12.77;57.27;101733.66;4965909;28;96801;-83
2021/04/19 00:32:25;;;;;;;;;;;;;;;12.72;57.61;101739.09;4978656;28;98196;-83
2021/04/19 00:34:51;;;;;;;;;;;;;;;12.50;58.38;101729.13;4967537;28;97736;-83
2021/04/19 00:37:19;;;;;;;;;;;;;;;12.49;58.31;101736.22;4961930;28;96754;-85
2021/04/19 00:39:46;;;;;;;;;;;;;;;12.11;60.46;101741.69;4959697;28;97248;-83
2021/04/19 00:42:12;;;;;;;;;;;;;;;12.31;59.80;101740.25;4958755;28;98912;-82
2021/04/19 00:44:38;;;;;;;;;;;;;;;12.31;59.80;101742.03;4959554;28;98788;-82
2021/04/19 00:47:04;;;;;;;;;;;;;;;12.43;59.43;101740.81;4965622;28;96763;-83
2021/04/19 00:49:30;;;;;;;;;;;;;;;12.63;58.25;101733.19;4973342;28;97568;-83
2021/04/19 00:51:56;;;;;;;;;;;;;;;12.47;59.01;101740.69;4983529;28;99463;-83
2021/04/19 00:54:23;;;;;;;;;;;;;;;12.35;59.36;101738.38;4988564;28;97826;-82
2021/04/19 00:56:50;;;;;;;;;;;;;;;12.23;59.95;101742.22;4983506;28;97511;-82
2021/04/19 00:59:16;;;;;;;;;;;;;;;12.12;60.09;101744.28;4954455;28;96075;-82
2021/04/19 01:01:42;;;;;;;;;;;;;;;12.48;59.22;101730.94;4989944;28;97828;-83
2021/04/19 01:04:08;;;;;;;;;;;;;;;12.04;60.50;101746.25;4996167;28;97878;-81
2021/04/19 01:06:50;;;;;;;;;;;;;;;12.01;60.57;101743.72;4964138;28;96536;-82
2021/04/19 01:09:16;;;;;;;;;;;;;;;11.47;62.15;101744.13;4961376;28;96745;-85
2021/04/19 01:11:42;;;;;;;;;;;;;;;10.67;65.14;101751.16;4968042;28;97918;-83
2021/04/19 01:14:08;;;;;;;;;;;;;;;10.43;66.18;101760.44;4964924;28;100872;-83
2021/04/19 01:16:34;;;;;;;;;;;;;;;10.43;66.75;101757.78;4963446;28;96738;-83
2021/04/19 01:19:00;;;;;;;;;;;;;;;10.41;66.54;101756.06;4963288;28;96805;-83
2021/04/19 01:21:27;;;;;;;;;;;;;;;10.73;65.30;101758.97;4965901;28;98494;-83
2021/04/19 01:23:52;;;;;;;;;;;;;;;10.85;65.21;101758.69;4970092;28;99307;-83
2021/04/19 01:26:18;;;;;;;;;;;;;;;10.41;66.61;101761.34;4967066;28;96843;-83
2021/04/19 01:28:44;;;;;;;;;;;;;;;10.72;65.38;101752.78;4961573;28;96544;-83
2021/04/19 01:31:10;;;;;;;;;;;;;;;10.90;64.81;101754.19;4984302;28;101003;-84
2021/04/19 01:33:36;;;;;;;;;;;;;;;11.02;64.80;101745.16;4964935;28;98081;-84
2021/04/19 01:36:02;;;;;;;;;;;;;;;10.48;65.37;101747.13;4963700;28;96618;-85
2021/04/19 01:38:30;;;;;;;;;;;;;;;10.49;65.55;101754.16;4967564;28;96897;-85
2021/04/19 01:40:56;;;;;;;;;;;;;;;10.04;67.23;101747.91;4964185;28;98839;-84
2021/04/19 01:43:22;;;;;;;;;;;;;;;9.84;68.40;101748.25;4967347;28;98785;-84
2021/04/19 01:45:48;;;;;;;;;;;;;;;10.19;67.14;101745.88;4965309;28;97458;-84
2021/04/19 01:48:14;;;;;;;;;;;;;;;10.65;65.17;101756.47;4977560;28;96294;-83
2021/04/19 01:50:40;;;;;;;;;;;;;;;10.82;65.02;101757.91;4980516;28;96946;-84
2021/04/19 01:53:06;;;;;;;;;;;;;;;10.87;64.44;101758.69;4987978;28;96422;-83
2021/04/19 01:55:35;;;;;;;;;;;;;;;11.17;64.23;101740.38;4980749;28;96644;-85
2021/04/19 01:58:01;;;;;;;;;;;;;;;11.18;63.94;101751.81;4971892;28;96728;-84
2021/04/19 02:00:32;;;;;;;;;;;;;;;11.06;64.50;101746.81;4970805;28;98424;-84
2021/04/19 02:03:04;;;;;;;;;;;;;;;11.02;64.31;101755.72;4988063;28;98017;-85
2021/04/19 02:05:33;;;;;;;;;;;;;;;10.44;66.13;101762.16;4958925;28;96697;-86
2021/04/19 02:08:02;;;;;;;;;;;;;;;11.01;64.75;101760.13;4964210;28;97067;-84
2021/04/19 02:10:32;;;;;;;;;;;;;;;10.88;64.38;101750.72;4962394;28;98912;-82
2021/04/19 02:13:00;;;;;;;;;;;;;;;10.93;64.71;101751.50;4963511;28;98828;-84
2021/04/19 02:15:32;;;;;;;;;;;;;;;10.10;67.38;101753.09;4971750;28;98063;-84
2021/04/19 02:18:02;;;;;;;;;;;;;;;9.96;67.59;101748.91;4977743;28;97847;-84
2021/04/19 02:20:34;;;;;;;;;;;;;;;9.90;67.81;101761.34;4957504;28;99146;-84
2021/04/19 02:23:01;;;;;;;;;;;;;;;10.02;67.28;101762.91;4978313;28;98812;-84
2021/04/19 02:25:29;;;;;;;;;;;;;;;10.08;67.06;101762.78;4965343;28;96802;-83
2021/04/19 02:27:58;;;;;;;;;;;;;;;10.24;66.61;101761.69;4961437;28;96820;-84
2021/04/19 02:30:29;;;;;;;;;;;;;;;10.58;65.26;101764.53;4953627;28;98920;-85
2021/04/19 02:32:55;;;;;;;;;;;;;;;10.95;63.39;101754.09;4966772;28;98900;-84
2021/04/19 02:35:22;;;;;;;;;;;;;;;10.38;64.83;101759.63;4966923;28;97099;-84
2021/04/19 02:37:50;;;;;;;;;;;;;;;10.47;64.22;101756.81;4961464;28;96810;-85
2021/04/19 02:40:17;;;;;;;;;;;;;;;10.78;64.23;101757.09;4942409;28;97568;-84
2021/04/19 02:42:44;;;;;;;;;;;;;;;10.86;62.82;101754.28;4954542;28;97209;-85
2021/04/19 02:45:11;;;;;;;;;;;;;;;10.90;63.05;101742.72;4963855;28;96853;-84
2021/04/19 02:47:39;;;;;;;;;;;;;;;10.67;63.16;101744.09;4964562;28;96652;-84
2021/04/19 02:50:06;;;;;;;;;;;;;;;10.50;64.02;101756.75;4964000;28;98998;-84
2021/04/19 02:52:33;;;;;;;;;;;;;;;10.74;63.08;101751.00;4961462;28;98058;-84
2021/04/19 02:54:59;;;;;;;;;;;;;;;10.83;63.24;101749.91;4974402;28;97594;-85
2021/04/19 02:57:27;;;;;;;;;;;;;;;10.76;63.36;101745.69;4966584;28;97031;-85
2021/04/19 02:59:54;;;;;;;;;;;;;;;10.49;64.32;101743.59;4960334;28;99706;-85
2021/04/19 03:02:21;;;;;;;;;;;;;;;10.97;63.07;101742.56;4962364;28;98766;-84
2021/04/19 03:04:47;;;;;;;;;;;;;;;11.24;61.55;101740.22;4961628;28;97030;-83
2021/04/19 03:07:13;;;;;;;;;;;;;;;11.13;61.61;101740.47;4968762;28;96741;-84
2021/04/19 03:09:42;;;;;;;;;;;;;;;11.36;60.91;101730.22;4959455;28;99427;-83
2021/04/19 03:12:09;;;;;;;;;;;;;;;11.53;60.18;101738.66;4961062;28;99226;-84
2021/04/19 03:14:36;;;;;;;;;;;;;;;11.51;60.17;101737.81;4958675;28;96913;-84
2021/04/19 03:17:04;;;;;;;;;;;;;;;11.91;58.95;101736.88;4972619;28;96960;-85
2021/04/19 03:19:32;;;;;;;;;;;;;;;11.85;58.89;101737.91;4959692;28;98935;-85
2021/04/19 03:21:59;;;;;;;;;;;;;;;11.22;60.76;101740.28;4962484;28;98912;-84
2021/04/19 03:24:26;;;;;;;;;;;;;;;10.75;62.48;101736.88;4960659;28;96980;-84
2021/04/19 03:26:53;;;;;;;;;;;;;;;10.91;62.69;101747.13;4965102;28;97144;-84
2021/04/19 03:29:20;;;;;;;;;;;;;;;11.32;60.95;101739.16;4961935;28;97718;-84
2021/04/19 03:31:47;;;;;;;;;;;;;;;10.68;62.93;101740.56;4963005;28;100349;-84
2021/04/19 03:34:16;;;;;;;;;;;;;;;10.29;64.63;101742.19;4981141;28;97048;-84
2021/04/19 03:36:42;;;;;;;;;;;;;;;10.81;62.66;101737.66;4977839;28;96634;-84
2021/04/19 03:39:12;;;;;;;;;;;;;;;10.50;63.18;101735.59;4970371;28;96988;-83
2021/04/19 03:41:40;;;;;;;;;;;;;;;10.74;62.47;101739.56;4967716;28;97042;-85
2021/04/19 03:44:07;;;;;;;;;;;;;;;10.53;63.11;101734.69;4959952;28;96699;-84
2021/04/19 03:46:35;;;;;;;;;;;;;;;10.93;62.26;101740.03;4954899;28;96786;-83
2021/04/19 03:49:03;;;;;;;;;;;;;;;10.62;62.38;101740.69;4959769;28;99170;-86
2021/04/19 03:51:31;;;;;;;;;;;;;;;9.99;65.37;101743.56;4951283;28;98799;-85
2021/04/19 03:53:58;;;;;;;;;;;;;;;9.72;67.03;101756.34;4959050;28;97052;-86
2021/04/19 03:56:25;;;;;;;;;;;;;;;10.26;64.56;101763.38;4970618;28;96769;-85
2021/04/19 03:58:51;;;;;;;;;;;;;;;10.78;62.98;101765.88;4969077;28;98921;-85
2021/04/19 04:01:18;;;;;;;;;;;;;;;10.91;62.17;101769.16;4969316;28;99233;-85
2021/04/19 04:03:44;;;;;;;;;;;;;;;10.03;64.48;101764.66;4965425;28;96626;-85
2021/04/19 04:06:12;;;;;;;;;;;;;;;10.49;64.20;101764.72;4961571;28;97079;-85
2021/04/19 04:08:38;;;;;;;;;;;;;;;9.97;65.10;101755.06;4969710;28;98195;-85
2021/04/19 04:11:05;;;;;;;;;;;;;;;10.42;63.90;101763.09;4959841;28;98971;-85
2021/04/19 04:13:33;;;;;;;;;;;;;;;10.51;63.12;101761.13;4960835;28;96989;-85
2021/04/19 04:15:59;;;;;;;;;;;;;;;10.47;63.27;101751.53;4936576;28;96829;-85
2021/04/19 04:18:25;;;;;;;;;;;;;;;9.86;65.57;101739.41;4918275;28;98205;-85
2021/04/19 04:20:51;;;;;;;;;;;;;;;9.55;67.09;101738.16;4925755;28;98085;-84
2021/04/19 04:23:18;;;;;;;;;;;;;;;9.28;68.21;101733.28;4921453;28;96941;-85
2021/04/19 04:25:45;;;;;;;;;;;;;;;9.86;66.94;101744.66;4918180;28;97150;-84
2021/04/19 04:28:10;;;;;;;;;;;;;;;10.58;64.25;101754.84;4925703;28;100722;-84
2021/04/19 04:30:37;;;;;;;;;;;;;;;11.22;61.39;101764.09;4931934;28;97840;-85
2021/04/19 04:33:04;;;;;;;;;;;;;;;11.46;60.55;101773.25;4921648;28;96726;-85
2021/04/19 04:35:30;;;;;;;;;;;;;;;10.84;62.02;101777.22;4920193;28;97282;-84
2021/04/19 04:37:57;;;;;;;;;;;;;;;10.83;62.02;101768.44;4929626;28;101494;-85
2021/04/19 04:40:23;;;;;;;;;;;;;;;10.84;61.91;101771.94;4936477;28;100632;-85
2021/04/19 04:42:50;;;;;;;;;;;;;;;10.93;61.89;101775.28;4917700;28;96948;-84
2021/04/19 04:45:19;;;;;;;;;;;;;;;10.86;62.27;101775.44;4923909;28;97165;-85
2021/04/19 04:47:48;;;;;;;;;;;;;;;11.14;60.98;101776.63;4915559;28;100520;-86
2021/04/19 04:50:17;;;;;;;;;;;;;;;11.16;61.05;101778.31;4923050;28;97742;-86
2021/04/19 04:52:46;;;;;;;;;;;;;;;11.40;60.59;101768.09;4922346;28;96861;-85
2021/04/19 04:55:14;;;;;;;;;;;;;;;11.44;60.19;101773.28;4919862;28;96926;-86
2021/04/19 04:57:41;;;;;;;;;;;;;;;11.38;60.42;101768.13;4919305;28;99308;-83
2021/04/19 05:00:09;;;;;;;;;;;;;;;11.08;61.40;101760.88;4918334;28;100524;-84
2021/04/19 05:02:36;;;;;;;;;;;;;;;11.23;61.67;101765.81;4918759;28;97312;-84
2021/04/19 05:05:03;;;;;;;;;;;;;;;11.18;61.70;101767.69;4919455;28;97023;-84
2021/04/19 05:07:29;;;;;;;;;;;;;;;10.98;62.41;101764.59;4933894;28;99699;-84
2021/04/19 05:09:56;;;;;;;;;;;;;;;11.20;61.79;101757.97;4920527;28;97546;-83
2021/04/19 05:12:21;;;;;;;;;;;;;;;11.04;62.31;101757.41;4923458;28;96812;-85
2021/04/19 05:14:57;;;;;;;;;;;;;;;10.83;63.17;101760.50;4956032;28;96842;-87
2021/04/19 05:17:23;;;;;;;;;;;;;;;10.97;62.97;101762.84;4964699;28;99212;-85
2021/04/19 05:19:49;;;;;;;;;;;;;;;11.40;61.93;101753.09;4967602;28;97530;-87
2021/04/19 05:22:15;;;;;;;;;;;;;;;11.76;60.51;101763.75;4969005;28;97640;-86
2021/04/19 05:24:41;;;;;;;;;;;;;;;11.85;60.08;101760.88;4984121;28;96753;-85
2021/04/19 05:27:07;;;;;;;;;;;;;;;11.56;60.76;101764.19;4959909;28;97836;-82
2021/04/19 05:29:33;;;;;;;;;;;;;;;11.71;59.96;101760.31;4960422;28;98992;-81
2021/04/19 05:32:01;;;;;;;;;;;;;;;10.73;63.37;101769.53;4967502;28;96981;-83
2021/04/19 05:34:26;;;;;;;;;;;;;;;11.13;62.65;101767.81;4974678;28;96892;-82
2021/04/19 05:36:52;;;;;;;;;;;;;;;10.94;63.65;101768.22;4962632;28;99856;-82
2021/04/19 05:39:19;;;;;;;;;;;;;;;11.43;61.83;101754.78;4962166;28;96827;-83
2021/04/19 05:41:46;;;;;;;;;;;;;;;11.53;61.12;101762.50;4975777;28;96651;-83
2021/04/19 05:44:12;;;;;;;;;;;;;;;10.95;63.26;101759.41;4973640;28;96587;-83
2021/04/19 05:46:38;;;;;;;;;;;;;;;11.08;63.36;101767.03;4971151;28;96820;-83
2021/04/19 05:49:04;;;;;;;;;;;;;;;10.75;63.85;101768.63;4970306;28;97981;-83
2021/04/19 05:51:34;;;;;;;;;;;;;;;11.13;63.06;101777.50;4972977;28;96658;-82
2021/04/19 05:54:00;;;;;;;;;;;;;;;11.83;61.20;101771.50;4969018;28;96501;-82
2021/04/19 05:56:37;;;;;;;;;;;;;;;11.72;60.78;101775.28;4969298;28;101475;-85
2021/04/19 05:59:07;;;;;;;;;;;;;;;11.68;60.74;101771.84;4968232;28;100543;-83
2021/04/19 06:01:35;;;;;;;;;;;;;;;11.91;60.32;101782.78;4967326;28;96668;-84
2021/04/19 06:04:06;;;;;;;;;;;;;;;12.07;59.83;101778.00;4968985;28;96732;-83
2021/04/19 06:06:37;;;;;;;;;;;;;;;12.06;59.70;101770.94;4964823;28;100394;-84
2021/04/19 06:09:05;;;;;;;;;;;;;;;11.84;60.14;101775.91;4964827;28;98120;-84
2021/04/19 06:11:36;;;;;;;;;;;;;;;11.67;61.04;101766.59;4970571;28;97019;-83
2021/04/19 06:14:03;;;;;;;;;;;;;;;12.49;59.14;101761.84;4962023;28;96842;-84
2021/04/19 06:16:29;;;;;;;;;;;;;;;12.69;58.69;101760.38;4965025;28;100782;-85
2021/04/19 06:18:56;;;;;;;;;;;;;;;12.42;58.77;101757.63;4961667;28;100063;-85
2021/04/19 06:21:23;;;;;;;;;;;;;;;12.53;58.55;101767.03;4968250;28;99545;-84
2021/04/19 06:23:48;;;;;;;;;;;;;;;12.54;57.88;101773.19;4969333;28;96674;-86
2021/04/19 06:26:15;;;;;;;;;;;;;;;11.96;60.01;101780.88;4971164;28;99702;-85
2021/04/19 06:28:43;;;;;;;;;;;;;;;11.32;63.03;101781.50;4965665;28;98585;-84
2021/04/19 06:31:12;;;;;;;;;;;;;;;11.76;61.16;101782.28;4969112;28;96779;-82
2021/04/19 06:33:37;;;;;;;;;;;;;;;12.54;58.84;101778.50;4963555;28;96625;-82
2021/04/19 06:36:04;;;;;;;;;;;;;;;12.29;59.14;101776.50;4965350;28;99308;-83
2021/04/19 06:38:29;;;;;;;;;;;;;;;11.92;60.12;101778.38;4976247;28;97772;-81
2021/04/19 06:40:56;;;;;;;;;;;;;;;11.21;62.56;101777.34;4978120;28;96523;-82
2021/04/19 06:43:22;;;;;;;;;;;;;;;10.82;64.07;101776.41;4969061;28;96019;-81
2021/04/19 06:45:50;;;;;;;;;;;;;;;11.04;63.90;101775.06;4962707;28;97864;-81
2021/04/19 06:48:16;;;;;;;;;;;;;;;11.12;63.75;101771.34;4965003;28;98791;-82
2021/04/19 06:50:42;;;;;;;;;;;;;;;10.97;64.07;101776.06;4966727;28;96957;-82
2021/04/19 06:53:09;;;;;;;;;;;;;;;11.22;63.35;101779.97;4972706;28;97315;-85
2021/04/19 06:55:38;;;;;;;;;;;;;;;11.52;62.03;101775.75;4975046;28;101155;-82
2021/04/19 06:58:07;;;;;;;;;;;;;;;11.40;62.95;101763.69;4967131;28;98999;-84
2021/04/19 07:00:36;;;;;;;;;;;;;;;11.31;63.06;101778.88;4968193;28;96871;-84
2021/04/19 07:03:05;;;;;;;;;;;;;;;11.62;62.94;101768.50;4964572;28;97318;-88
2021/04/19 07:05:33;;;;;;;;;;;;;;;11.88;61.95;101769.59;4975620;28;97904;-88
2021/04/19 07:08:02;;;;;;;;;;;;;;;12.21;60.94;101770.53;4974792;28;99143;-88
2021/04/19 07:10:29;;;;;;;;;;;;;;;12.29;60.76;101770.34;4982580;28;96699;-87
2021/04/19 07:12:57;;;;;;;;;;;;;;;12.55;59.22;101770.50;4985971;28;96672;-87
2021/04/19 07:15:23;;;;;;;;;;;;;;;12.97;57.75;101771.09;4979694;28;98245;-84
2021/04/19 07:17:50;;;;;;;;;;;;;;;13.05;57.49;101777.03;4973919;28;97910;-86
2021/04/19 07:20:34;;;;;;;;;;;;;;;13.36;56.27;101770.84;4979282;28;95949;-85
2021/04/19 07:23:11;;;;;;;;;;;;;;;13.06;57.21;101775.25;4980105;28;95970;-80
2021/04/19 07:25:37;;;;;;;;;;;;;;;13.21;57.25;101760.69;4978163;28;96839;-85
2021/04/19 07:28:04;;;;;;;;;;;;;;;13.46;56.62;101749.25;4988866;28;100477;-85
2021/04/19 07:30:31;;;;;;;;;;;;;;;13.43;56.36;101740.53;4975740;28;97374;-87
2021/04/19 07:33:00;;;;;;;;;;;;;;;13.66;56.02;101729.16;4963770;28;96063;-86
2021/04/19 07:35:27;;;;;;;;;;;;;;;13.53;56.07;101726.91;4959810;28;97980;-88
2021/04/19 07:37:57;;;;;;;;;;;;;;;14.11;54.62;101729.44;4966576;28;98097;-85
2021/04/19 07:40:33;;;;;;;;;;;;;;;13.08;57.89;101738.91;4966438;28;96594;-87
2021/04/19 07:43:10;;;;;;;;;;;;;;;13.28;57.92;101756.91;4979291;28;96955;-88
2021/04/19 07:45:36;;;;;;;;;;;;;;;13.67;56.52;101753.00;4946867;28;97942;-85
2021/04/19 07:48:04;;;;;;;;;;;;;;;13.65;55.86;101751.34;4972665;28;96805;-85
2021/04/19 07:50:36;;;;;;;;;;;;;;;13.62;56.38;101751.44;4966350;28;96710;-87
2021/04/19 07:53:05;;;;;;;;;;;;;;;13.98;55.46;101752.88;4971895;28;97067;-81
2021/04/19 07:55:33;;;;;;;;;;;;;;;14.21;55.09;101763.59;4959316;28;101093;-84
2021/04/19 07:58:00;;;;;;;;;;;;;;;14.01;55.62;101759.88;4964779;28;99847;-83
2021/04/19 08:00:33;;;;;;;;;;;;;;;14.31;54.79;101764.13;4978178;28;96874;-88
2021/04/19 08:03:02;;;;;;;;;;;;;;;14.62;53.67;101764.84;4977644;28;96741;-86
2021/04/19 08:05:32;;;;;;;;;;;;;;;14.74;53.27;101779.47;4966598;28;96936;-87
2021/04/19 08:07:58;;;;;;;;;;;;;;;14.74;53.12;101777.69;4970921;28;99002;-86
2021/04/19 08:10:25;;;;;;;;;;;;;;;14.46;53.92;101776.06;4970855;28;96908;-86
2021/04/19 08:13:01;;;;;;;;;;;;;;;14.53;54.17;101778.44;4964443;28;97171;-84
2021/04/19 08:18:10;;;;;;;;;;;;;;;14.49;55.02;101763.53;4959924;28;99525;-87
2021/04/19 08:20:36;;;;;;;;;;;;;;;14.20;56.02;101768.97;4960623;28;97179;-85
2021/04/19 08:23:04;;;;;;;;;;;;;;;14.87;54.08;101770.13;4948370;28;96879;-86
2021/04/19 08:25:38;;;;;;;;;;;;;;;14.73;54.01;101767.09;4967767;28;98294;-87
2021/04/19 08:28:05;;;;;;;;;;;;;;;15.07;53.67;101766.72;4964225;28;98410;-85
2021/04/19 08:30:32;;;;;;;;;;;;;;;14.92;54.21;101767.28;4966309;28;97229;-85
2021/04/19 08:32:59;;;;;;;;;;;;;;;14.72;54.68;101763.56;4967806;28;97389;-87
2021/04/19 08:35:25;;;;;;;;;;;;;;;15.19;53.49;101760.03;4962266;28;99737;-87
2021/04/19 08:37:52;;;;;;;;;;;;;;;14.99;54.25;101758.16;4972856;28;97707;-86
2021/04/19 08:40:18;;;;;;;;;;;;;;;15.57;52.98;101740.78;4977056;28;96506;-85
2021/04/19 08:42:44;;;;;;;;;;;;;;;16.29;50.62;101731.50;4990854;28;96974;-87
2021/04/19 08:45:10;;;;;;;;;;;;;;;15.67;51.83;101731.50;4982529;28;97821;-84
2021/04/19 08:47:37;;;;;;;;;;;;;;;16.64;49.71;101729.97;4975742;28;100361;-83
2021/04/19 08:50:04;;;;;;;;;;;;;;;16.59;49.76;101729.28;4974244;28;95905;-87
2021/04/19 08:52:30;;;;;;;;;;;;;;;15.48;52.70;101736.69;4981835;28;96031;-82
2021/04/19 08:54:56;;;;;;;;;;;;;;;15.82;51.92;101725.53;4976328;28;96698;-86
2021/04/19 08:57:22;;;;;;;;;;;;;;;14.72;55.73;101715.69;4981738;28;97724;-85
2021/04/19 08:59:50;;;;;;;;;;;;;;;15.23;55.11;101725.25;4981373;28;95753;-86
2021/04/19 09:02:17;;;;;;;;;;;;;;;15.26;53.82;101714.50;4981282;28;96260;-86
2021/04/19 09:05:02;;;;;;;;;;;;;;;14.46;56.89;101715.78;4961372;28;100038;-85
2021/04/19 09:07:31;;;;;;;;;;;;;;;15.24;54.88;101705.69;4975676;28;102763;-87
2021/04/19 09:09:57;;;;;;;;;;;;;;;15.33;54.33;101707.13;4978717;28;96674;-87
2021/04/19 09:12:25;;;;;;;;;;;;;;;15.33;54.45;101700.00;4971465;28;96649;-86
2021/04/19 09:15:06;;;;;;;;;;;;;;;13.98;58.59;101707.69;4983647;28;100261;-85
2021/04/19 09:17:39;;;;;;;;;;;;;;;14.62;57.09;101708.97;4975934;28;101201;-85
2021/04/19 09:20:08;;;;;;;;;;;;;;;14.01;58.86;101714.69;4973664;28;96369;-88
2021/04/19 09:22:35;;;;;;;;;;;;;;;13.76;60.09;101707.56;4973213;28;97127;-88
2021/04/19 09:25:03;;;;;;;;;;;;;;;14.04;59.14;101703.97;4962489;28;96454;-88
2021/04/19 09:27:49;;;;;;;;;;;;;;;14.08;58.85;101698.50;4975572;28;99369;-87
2021/04/19 09:30:36;;;;;;;;;;;;;;;14.50;57.78;101695.28;4967887;28;96784;-87
2021/04/19 09:33:29;;;;;;;;;;;;;;;13.84;59.93;101694.91;4962596;28;96762;-86
2021/04/19 09:35:56;;;;;;;;;;;;;;;14.15;58.94;101699.16;4965706;28;98030;-87
2021/04/19 09:38:41;;;;;;;;;;;;;;;14.31;58.70;101692.34;4946307;28;98981;-86
2021/04/19 09:41:07;;;;;;;;;;;;;;;15.36;55.49;101696.38;4963630;28;96764;-86
2021/04/19 09:43:34;;;;;;;;;;;;;;;15.86;53.94;101688.97;4969516;28;96851;-86
2021/04/19 09:46:01;;;;;;;;;;;;;;;15.85;53.69;101696.09;4970878;28;99442;-88
2021/04/19 09:48:38;;;;;;;;;;;;;;;16.51;52.31;101687.88;4969392;28;96925;-85
2021/04/19 09:51:21;;;;;;;;;;;;;;;16.77;51.63;101694.72;4970285;28;97181;-87
2021/04/19 09:53:51;;;;;;;;;;;;;;;16.78;51.40;101692.00;4964967;28;96814;-88
2021/04/19 09:59:03;;;;;;;;;;;;;;;16.94;50.78;101698.31;4964099;28;99551;-85
2021/04/19 10:01:29;;;;;;;;;;;;;;;17.01;50.88;101694.44;4967992;28;96851;-84
2021/04/19 10:04:00;;;;;;;;;;;;;;;17.08;50.72;101700.34;4958148;28;96886;-85
2021/04/19 10:06:33;;;;;;;;;;;;;;;17.00;51.16;101698.03;4966767;28;97751;-85
2021/04/19 10:09:02;;;;;;;;;;;;;;;17.20;50.58;101699.75;4953455;28;98810;-84
2021/04/19 10:11:30;;;;;;;;;;;;;;;17.07;50.52;101691.47;4969433;28;98153;-83
2021/04/19 10:13:56;;;;;;;;;;;;;;;17.28;50.20;101692.25;4960421;28;97299;-83
2021/04/19 10:16:26;;;;;;;;;;;;;;;17.36;49.87;101686.53;4951167;28;99226;-84
2021/04/19 10:18:53;;;;;;;;;;;;;;;17.31;50.24;101692.13;4954339;28;96891;-84
2021/04/19 10:21:26;;;;;;;;;;;;;;;17.21;50.74;101685.47;4956894;28;97686;-83
2021/04/19 10:23:52;;;;;;;;;;;;;;;17.43;50.31;101685.31;4951641;28;97161;-84
2021/04/19 10:26:18;;;;;;;;;;;;;;;17.49;49.81;101685.00;4956970;28;97776;-82
2021/04/19 10:28:45;;;;;;;;;;;;;;;17.90;49.11;101686.50;4952503;28;98294;-82
2021/04/19 10:31:14;;;;;;;;;;;;;;;17.83;49.19;101689.56;4969542;28;96859;-85
2021/04/19 10:33:40;;;;;;;;;;;;;;;18.12;49.01;101670.19;4974654;28;96849;-86
2021/04/19 10:36:10;;;;;;;;;;;;;;;17.71;49.44;101675.03;4972052;28;99094;-85
2021/04/19 10:38:36;;;;;;;;;;;;;;;17.57;49.64;101674.81;4974419;28;99236;-87
2021/04/19 10:41:05;;;;;;;;;;;;;;;17.52;49.71;101674.19;4982759;28;96630;-84
2021/04/19 10:43:31;;;;;;;;;;;;;;;17.63;49.67;101677.19;4977426;28;96797;-86
2021/04/19 10:45:56;;;;;;;;;;;;;;;17.68;49.52;101671.63;4974218;28;97904;-86
2021/04/19 10:48:24;;;;;;;;;;;;;;;17.77;49.08;101674.69;4973957;28;97758;-85
2021/04/19 10:50:56;;;;;;;;;;;;;;;17.63;49.44;101674.53;4961663;28;97438;-85
2021/04/19 10:53:33;;;;;;;;;;;;;;;17.18;50.68;101679.44;4966683;28;97657;-84
2021/04/19 10:56:00;;;;;;;;;;;;;;;17.28;50.71;101678.03;4941614;28;97863;-83
2021/04/19 10:58:27;;;;;;;;;;;;;;;17.40;50.77;101680.97;4961193;28;97366;-85
2021/04/19 11:00:53;;;;;;;;;;;;;;;17.91;49.45;101677.53;4960923;28;96820;-86
2021/04/19 11:03:19;;;;;;;;;;;;;;;18.28;48.55;101676.47;4957530;28;96940;-87
2021/04/19 11:05:45;;;;;;;;;;;;;;;18.13;48.49;101679.09;4943252;28;100091;-87
2021/04/19 11:08:11;;;;;;;;;;;;;;;17.60;49.98;101666.63;4968542;28;99259;-85
2021/04/19 11:10:37;;;;;;;;;;;;;;;18.51;48.42;101667.22;4969955;28;96790;-86
2021/04/19 11:13:04;;;;;;;;;;;;;;;18.64;47.52;101656.75;4963114;28;97726;-81
2021/04/19 11:15:32;;;;;;;;;;;;;;;18.69;46.94;101665.41;4963779;28;97869;-85
2021/04/19 11:17:58;;;;;;;;;;;;;;;18.73;46.92;101660.72;4964567;28;99171;-85
2021/04/19 11:20:25;;;;;;;;;;;;;;;19.02;46.08;101652.81;4967440;28;96763;-87
2021/04/19 11:22:50;;;;;;;;;;;;;;;18.65;47.09;101653.97;4966324;28;96757;-86
2021/04/19 11:25:18;;;;;;;;;;;;;;;18.73;47.04;101660.72;4969692;28;97303;-86
2021/04/19 11:27:44;;;;;;;;;;;;;;;18.39;47.92;101654.50;4971423;28;97778;-86
2021/04/19 11:30:23;;;;;;;;;;;;;;;18.99;46.62;101655.66;4975183;28;96760;-86
2021/04/19 11:33:00;;;;;;;;;;;;;;;18.79;47.20;101653.22;4975785;28;96679;-85
2021/04/19 11:35:27;;;;;;;;;;;;;;;18.58;47.72;101654.41;4970998;28;98431;-88
2021/04/19 11:37:59;;;;;;;;;;;;;;;18.06;48.73;101657.13;4977173;28;101174;-84
2021/04/19 11:40:26;;;;;;;;;;;;;;;17.79;49.46;101651.41;4980834;28;96633;-87
2021/04/19 11:42:52;;;;;;;;;;;;;;;17.71;49.93;101653.63;4973826;28;96142;-87
2021/04/19 11:45:21;;;;;;;;;;;;;;;17.78;50.07;101652.38;4979017;28;97797;-89
2021/04/19 11:47:47;;;;;;;;;;;;;;;17.66;50.47;101647.63;4975505;28;96543;-85
2021/04/19 11:50:14;;;;;;;;;;;;;;;17.69;50.83;101647.50;4981121;28;96083;-86
2021/04/19 11:52:44;;;;;;;;;;;;;;;18.23;49.82;101642.91;4980644;28;96562;-86
2021/04/19 11:55:11;;;;;;;;;;;;;;;18.17;49.33;101641.41;4980122;28;97807;-85
2021/04/19 11:57:37;;;;;;;;;;;;;;;18.26;49.29;101638.22;4977449;28;99584;-87
2021/04/19 12:00:03;;;;;;;;;;;;;;;18.20;49.60;101633.22;4972987;28;96814;-88
2021/04/19 12:02:29;;;;;;;;;;;;;;;18.03;49.60;101619.88;4975202;28;97010;-85
2021/04/19 12:04:55;;;;;;;;;;;;;;;18.22;49.07;101630.47;4975650;28;99786;-84
2021/04/19 12:07:22;;;;;;;;;;;;;;;18.32;49.43;101639.72;4975895;28;98076;-85
2021/04/19 12:09:47;;;;;;;;;;;;;;;18.29;49.70;101638.09;4974061;28;96781;-82
2021/04/19 12:12:14;;;;;;;;;;;;;;;18.30;48.92;101637.16;4977104;28;96799;-84
2021/04/19 12:14:39;;;;;;;;;;;;;;;18.24;49.29;101632.13;4971779;28;97904;-84
2021/04/19 12:17:05;;;;;;;;;;;;;;;17.98;49.90;101629.09;4971357;28;96854;-85
2021/04/19 12:19:31;;;;;;;;;;;;;;;18.19;48.82;101628.81;4972701;28;96802;-86
2021/04/19 12:21:57;;;;;;;;;;;;;;;18.23;48.92;101619.69;4981778;28;96078;-84
2021/04/19 12:24:23;;;;;;;;;;;;;;;18.40;48.80;101626.78;4973385;28;98007;-83
2021/04/19 12:26:49;;;;;;;;;;;;;;;18.02;49.73;101617.28;4976275;28;97585;-84
2021/04/19 12:29:15;;;;;;;;;;;;;;;18.42;48.94;101616.88;4979746;28;96420;-83
2021/04/19 12:31:41;;;;;;;;;;;;;;;18.60;48.30;101607.88;4977269;28;96380;-83
2021/04/19 12:34:06;;;;;;;;;;;;;;;18.46;49.38;101609.53;4980162;28;98044;-83
2021/04/19 12:36:33;;;;;;;;;;;;;;;18.90;48.54;101601.78;4981375;28;99152;-85
2021/04/19 12:38:59;;;;;;;;;;;;;;;18.70;48.94;101606.44;4976411;28;96466;-84
2021/04/19 12:41:26;;;;;;;;;;;;;;;18.78;49.03;101594.41;4972981;28;97234;-83
2021/04/19 12:43:55;;;;;;;;;;;;;;;18.93;48.81;101596.22;4974793;28;97970;-84